sensor_id;sensor_type;location;lat;lon;timestamp;P1;durP1;ratioP1;P2;durP2;ratioP2
25649;SDS011;13505;45.196;5.696;2022-09-13T04:01:38;5.85;;;1.92;;
25649;SDS011;13505;45.196;5.696;2022-09-13T04:06:28;2.63;;;1.67;;
25649;SDS011;13505;45.196;5.696;2022-09-13T04:11:18;2.63;;;1.90;;
25649;SDS011;13505;45.196;5.696;2022-09-13T04:16:10;3.35;;;2.30;;
25649;SDS011;13505;45.196;5.696;2022-09-13T04:21:01;3.63;;;1.70;;
25649;SDS011;13505;45.196;5.696;2022-09-13T04:25:53;5.05;;;2.20;;
25649;SDS011;13505;45.196;5.696;2022-09-13T04:30:44;4.35;;;1.85;;
25649;SDS011;13505;45.196;5.696;2022-09-13T04:35:35;3.40;;;2.20;;
25649;SDS011;13505;45.196;5.696;2022-09-13T04:40:25;4.95;;;2.40;;
25649;SDS011;13505;45.196;5.696;2022-09-13T04:45:16;4.77;;;2.10;;
25649;SDS011;13505;45.196;5.696;2022-09-13T04:50:06;3.97;;;2.00;;
25649;SDS011;13505;45.196;5.696;2022-09-13T04:54:58;3.85;;;2.20;;
25649;SDS011;13505;45.196;5.696;2022-09-13T04:59:50;4.07;;;2.08;;
25649;SDS011;13505;45.196;5.696;2022-09-13T05:04:40;6.10;;;2.13;;
25649;SDS011;13505;45.196;5.696;2022-09-13T05:09:31;2.58;;;1.70;;
25649;SDS011;13505;45.196;5.696;2022-09-13T05:14:21;4.60;;;2.20;;
25649;SDS011;13505;45.196;5.696;2022-09-13T05:19:11;3.10;;;2.03;;
25649;SDS011;13505;45.196;5.696;2022-09-13T05:24:02;7.25;;;2.50;;
25649;SDS011;13505;45.196;5.696;2022-09-13T05:28:52;6.25;;;2.35;;
25649;SDS011;13505;45.196;5.696;2022-09-13T05:33:43;7.03;;;2.60;;
25649;SDS011;13505;45.196;5.696;2022-09-13T05:38:35;4.95;;;2.33;;
25649;SDS011;13505;45.196;5.696;2022-09-13T05:43:26;6.13;;;2.43;;
25649;SDS011;13505;45.196;5.696;2022-09-13T05:48:18;2.80;;;2.08;;
25649;SDS011;13505;45.196;5.696;2022-09-13T05:53:08;5.83;;;2.90;;
25649;SDS011;13505;45.196;5.696;2022-09-13T05:58:00;7.60;;;3.13;;
25649;SDS011;13505;45.196;5.696;2022-09-13T06:02:51;9.32;;;2.70;;
25649;SDS011;13505;45.196;5.696;2022-09-13T06:07:41;4.90;;;2.40;;
25649;SDS011;13505;45.196;5.696;2022-09-13T06:12:32;3.05;;;2.42;;
25649;SDS011;13505;45.196;5.696;2022-09-13T06:17:22;5.60;;;2.42;;
25649;SDS011;13505;45.196;5.696;2022-09-13T06:22:13;4.13;;;2.60;;
25649;SDS011;13505;45.196;5.696;2022-09-13T06:27:03;5.97;;;2.70;;
25649;SDS011;13505;45.196;5.696;2022-09-13T06:31:54;6.13;;;2.50;;
25649;SDS011;13505;45.196;5.696;2022-09-13T06:36:44;10.57;;;2.50;;
25649;SDS011;13505;45.196;5.696;2022-09-13T06:41:34;3.07;;;2.20;;
25649;SDS011;13505;45.196;5.696;2022-09-13T06:46:27;3.30;;;2.28;;
25649;SDS011;13505;45.196;5.696;2022-09-13T06:51:19;6.93;;;2.40;;
25649;SDS011;13505;45.196;5.696;2022-09-13T06:56:13;8.73;;;2.40;;
25649;SDS011;13505;45.196;5.696;2022-09-13T07:01:08;3.88;;;1.90;;
25649;SDS011;13505;45.196;5.696;2022-09-13T07:06:19;8.55;;;2.50;;
25649;SDS011;13505;45.196;5.696;2022-09-13T07:11:12;6.15;;;2.33;;
25649;SDS011;13505;45.196;5.696;2022-09-13T07:16:08;8.00;;;2.60;;
25649;SDS011;13505;45.196;5.696;2022-09-13T07:21:07;4.68;;;1.77;;
25649;SDS011;13505;45.196;5.696;2022-09-13T07:25:59;5.70;;;2.10;;
25649;SDS011;13505;45.196;5.696;2022-09-13T07:30:54;6.70;;;2.15;;
25649;SDS011;13505;45.196;5.696;2022-09-13T07:35:53;3.55;;;2.22;;
25649;SDS011;13505;45.196;5.696;2022-09-13T07:40:51;7.72;;;1.65;;
25649;SDS011;13505;45.196;5.696;2022-09-13T07:45:43;5.20;;;1.85;;
25649;SDS011;13505;45.196;5.696;2022-09-13T07:50:33;3.87;;;1.83;;
25649;SDS011;13505;45.196;5.696;2022-09-13T07:55:24;7.72;;;1.70;;
25649;SDS011;13505;45.196;5.696;2022-09-13T08:00:14;3.03;;;1.77;;
25649;SDS011;13505;45.196;5.696;2022-09-13T08:05:05;2.97;;;1.60;;
25649;SDS011;13505;45.196;5.696;2022-09-13T08:09:56;4.47;;;1.83;;
25649;SDS011;13505;45.196;5.696;2022-09-13T08:14:46;5.20;;;1.90;;
25649;SDS011;13505;45.196;5.696;2022-09-13T08:19:36;6.07;;;2.23;;
25649;SDS011;13505;45.196;5.696;2022-09-13T08:24:27;5.33;;;2.53;;
25649;SDS011;13505;45.196;5.696;2022-09-13T08:29:17;7.23;;;2.13;;
25649;SDS011;13505;45.196;5.696;2022-09-13T08:34:11;6.90;;;2.40;;
25649;SDS011;13505;45.196;5.696;2022-09-13T08:39:03;4.43;;;2.10;;
25649;SDS011;13505;45.196;5.696;2022-09-13T08:43:59;8.32;;;2.28;;
25649;SDS011;13505;45.196;5.696;2022-09-13T08:48:55;8.60;;;2.45;;
25649;SDS011;13505;45.196;5.696;2022-09-13T08:53:50;4.10;;;2.00;;
25649;SDS011;13505;45.196;5.696;2022-09-13T09:08:59;4.80;;;2.15;;
25649;SDS011;13505;45.196;5.696;2022-09-13T09:13:56;8.70;;;2.58;;
25649;SDS011;13505;45.196;5.696;2022-09-13T09:18:49;5.88;;;2.35;;
25649;SDS011;13505;45.196;5.696;2022-09-13T09:23:50;2.92;;;2.10;;
25649;SDS011;13505;45.196;5.696;2022-09-13T09:28:46;5.68;;;2.00;;
25649;SDS011;13505;45.196;5.696;2022-09-13T09:33:46;7.43;;;2.20;;
25649;SDS011;13505;45.196;5.696;2022-09-13T09:38:45;2.90;;;1.92;;
25649;SDS011;13505;45.196;5.696;2022-09-13T09:43:46;4.50;;;1.95;;
25649;SDS011;13505;45.196;5.696;2022-09-13T09:48:50;2.33;;;2.05;;
25649;SDS011;13505;45.196;5.696;2022-09-13T09:53:44;2.85;;;1.80;;
25649;SDS011;13505;45.196;5.696;2022-09-13T09:58:38;4.78;;;2.13;;
25649;SDS011;13505;45.196;5.696;2022-09-13T10:03:31;6.40;;;2.40;;
25649;SDS011;13505;45.196;5.696;2022-09-13T10:08:24;4.47;;;2.05;;
25649;SDS011;13505;45.196;5.696;2022-09-13T10:13:18;6.13;;;2.30;;
25649;SDS011;13505;45.196;5.696;2022-09-13T10:18:14;4.75;;;2.08;;
25649;SDS011;13505;45.196;5.696;2022-09-13T10:28:03;7.50;;;2.30;;
25649;SDS011;13505;45.196;5.696;2022-09-13T10:32:59;8.93;;;2.63;;
25649;SDS011;13505;45.196;5.696;2022-09-13T10:37:50;3.22;;;2.00;;
25649;SDS011;13505;45.196;5.696;2022-09-13T10:42:41;3.92;;;1.95;;
25649;SDS011;13505;45.196;5.696;2022-09-13T10:47:44;2.97;;;2.03;;
25649;SDS011;13505;45.196;5.696;2022-09-13T10:52:44;8.93;;;2.40;;
25649;SDS011;13505;45.196;5.696;2022-09-13T10:57:37;6.15;;;2.50;;
25649;SDS011;13505;45.196;5.696;2022-09-13T11:02:45;6.80;;;2.57;;
25649;SDS011;13505;45.196;5.696;2022-09-13T11:13:06;4.80;;;2.50;;
25649;SDS011;13505;45.196;5.696;2022-09-13T11:28:33;3.72;;;2.25;;
25649;SDS011;13505;45.196;5.696;2022-09-13T11:38:48;5.53;;;2.45;;
25649;SDS011;13505;45.196;5.696;2022-09-13T11:44:18;4.32;;;2.05;;
25649;SDS011;13505;45.196;5.696;2022-09-13T11:49:44;3.90;;;2.17;;
25649;SDS011;13505;45.196;5.696;2022-09-13T11:59:59;6.43;;;2.17;;
25649;SDS011;13505;45.196;5.696;2022-09-13T12:05:04;5.80;;;2.30;;
25649;SDS011;13505;45.196;5.696;2022-09-13T12:09:58;6.10;;;2.22;;
25649;SDS011;13505;45.196;5.696;2022-09-13T12:14:59;6.10;;;2.38;;
25649;SDS011;13505;45.196;5.696;2022-09-13T12:19:51;5.05;;;2.35;;
25649;SDS011;13505;45.196;5.696;2022-09-13T12:34:49;6.18;;;2.63;;
25649;SDS011;13505;45.196;5.696;2022-09-13T12:56:01;7.10;;;2.55;;
25649;SDS011;13505;45.196;5.696;2022-09-13T13:06:07;8.00;;;3.13;;
25649;SDS011;13505;45.196;5.696;2022-09-13T13:11:14;6.88;;;2.95;;
25649;SDS011;13505;45.196;5.696;2022-09-13T13:16:21;10.95;;;2.90;;
25649;SDS011;13505;45.196;5.696;2022-09-13T13:21:26;11.45;;;3.65;;
25649;SDS011;13505;45.196;5.696;2022-09-13T13:51:22;10.27;;;3.67;;
25649;SDS011;13505;45.196;5.696;2022-09-13T13:56:48;10.75;;;3.03;;
25649;SDS011;13505;45.196;5.696;2022-09-13T14:01:37;9.00;;;2.90;;
25649;SDS011;13505;45.196;5.696;2022-09-13T14:06:34;7.88;;;2.58;;
25649;SDS011;13505;45.196;5.696;2022-09-13T14:17:06;5.32;;;2.38;;
25649;SDS011;13505;45.196;5.696;2022-09-13T14:22:32;4.45;;;2.22;;
25649;SDS011;13505;45.196;5.696;2022-09-13T14:27:27;5.63;;;2.37;;
25649;SDS011;13505;45.196;5.696;2022-09-13T14:32:21;4.10;;;2.05;;
25649;SDS011;13505;45.196;5.696;2022-09-13T14:37:23;3.55;;;2.30;;
25649;SDS011;13505;45.196;5.696;2022-09-13T14:42:18;4.22;;;2.22;;
25649;SDS011;13505;45.196;5.696;2022-09-13T14:52:28;6.93;;;2.83;;
25649;SDS011;13505;45.196;5.696;2022-09-13T14:57:26;8.10;;;2.72;;
25649;SDS011;13505;45.196;5.696;2022-09-13T15:02:20;4.65;;;2.88;;
25649;SDS011;13505;45.196;5.696;2022-09-13T15:07:20;8.25;;;2.83;;
25649;SDS011;13505;45.196;5.696;2022-09-13T15:12:23;4.72;;;2.90;;
25649;SDS011;13505;45.196;5.696;2022-09-13T15:17:15;8.68;;;2.80;;
25649;SDS011;13505;45.196;5.696;2022-09-13T15:27:06;9.20;;;2.63;;
25649;SDS011;13505;45.196;5.696;2022-09-13T15:32:05;6.15;;;2.60;;
25649;SDS011;13505;45.196;5.696;2022-09-13T15:42:00;6.65;;;2.90;;
25649;SDS011;13505;45.196;5.696;2022-09-13T15:46:54;8.07;;;3.03;;
25649;SDS011;13505;45.196;5.696;2022-09-13T15:51:53;6.70;;;3.17;;
25649;SDS011;13505;45.196;5.696;2022-09-13T15:56:45;8.93;;;3.78;;
25649;SDS011;13505;45.196;5.696;2022-09-13T16:01:36;5.68;;;3.20;;
25649;SDS011;13505;45.196;5.696;2022-09-13T16:06:26;6.47;;;3.37;;
25649;SDS011;13505;45.196;5.696;2022-09-13T16:11:17;11.33;;;4.30;;
25649;SDS011;13505;45.196;5.696;2022-09-13T16:16:09;15.87;;;3.70;;
25649;SDS011;13505;45.196;5.696;2022-09-13T16:21:02;10.38;;;3.60;;
25649;SDS011;13505;45.196;5.696;2022-09-13T16:25:54;9.57;;;3.75;;
25649;SDS011;13505;45.196;5.696;2022-09-13T16:30:47;9.70;;;3.00;;
25649;SDS011;13505;45.196;5.696;2022-09-13T16:35:38;6.65;;;3.38;;
25649;SDS011;13505;45.196;5.696;2022-09-13T16:40:29;6.25;;;3.10;;
25649;SDS011;13505;45.196;5.696;2022-09-13T16:45:19;7.80;;;3.50;;
25649;SDS011;13505;45.196;5.696;2022-09-13T16:50:10;9.82;;;3.47;;
25649;SDS011;13505;45.196;5.696;2022-09-13T16:55:00;14.47;;;3.70;;
25649;SDS011;13505;45.196;5.696;2022-09-13T16:59:52;10.70;;;2.80;;
25649;SDS011;13505;45.196;5.696;2022-09-13T17:04:45;7.85;;;2.60;;
25649;SDS011;13505;45.196;5.696;2022-09-13T17:09:36;8.00;;;2.67;;
25649;SDS011;13505;45.196;5.696;2022-09-13T17:14:27;7.40;;;2.67;;
25649;SDS011;13505;45.196;5.696;2022-09-13T17:19:19;12.20;;;2.95;;
25649;SDS011;13505;45.196;5.696;2022-09-13T17:24:20;6.20;;;2.40;;
25649;SDS011;13505;45.196;5.696;2022-09-13T17:29:10;7.37;;;2.60;;
25649;SDS011;13505;45.196;5.696;2022-09-13T17:34:01;10.13;;;2.92;;
25649;SDS011;13505;45.196;5.696;2022-09-13T17:38:56;4.95;;;2.45;;
25649;SDS011;13505;45.196;5.696;2022-09-13T17:43:47;8.27;;;2.70;;
25649;SDS011;13505;45.196;5.696;2022-09-13T17:48:37;6.22;;;2.33;;
25649;SDS011;13505;45.196;5.696;2022-09-13T17:53:29;7.55;;;2.70;;
25649;SDS011;13505;45.196;5.696;2022-09-13T17:58:19;6.70;;;2.78;;
25649;SDS011;13505;45.196;5.696;2022-09-13T18:03:09;5.53;;;3.00;;
25649;SDS011;13505;45.196;5.696;2022-09-13T18:08:00;9.40;;;3.22;;
25649;SDS011;13505;45.196;5.696;2022-09-13T18:12:51;5.60;;;2.92;;
25649;SDS011;13505;45.196;5.696;2022-09-13T18:17:41;7.37;;;2.80;;
25649;SDS011;13505;45.196;5.696;2022-09-13T18:22:31;4.80;;;2.60;;
25649;SDS011;13505;45.196;5.696;2022-09-13T18:27:22;6.60;;;2.97;;
25649;SDS011;13505;45.196;5.696;2022-09-13T18:32:12;4.73;;;2.80;;
25649;SDS011;13505;45.196;5.696;2022-09-13T18:37:03;5.10;;;3.08;;
25649;SDS011;13505;45.196;5.696;2022-09-13T18:41:53;5.27;;;2.97;;
25649;SDS011;13505;45.196;5.696;2022-09-13T18:46:43;3.77;;;2.83;;
25649;SDS011;13505;45.196;5.696;2022-09-13T18:51:36;7.13;;;2.72;;
25649;SDS011;13505;45.196;5.696;2022-09-13T18:56:29;6.93;;;3.03;;
25649;SDS011;13505;45.196;5.696;2022-09-13T19:01:22;7.10;;;2.88;;
25649;SDS011;13505;45.196;5.696;2022-09-13T19:06:19;5.22;;;2.85;;
25649;SDS011;13505;45.196;5.696;2022-09-13T19:11:20;4.60;;;2.90;;
25649;SDS011;13505;45.196;5.696;2022-09-13T19:16:12;5.80;;;3.00;;
25649;SDS011;13505;45.196;5.696;2022-09-13T19:26:18;5.65;;;3.20;;
25649;SDS011;13505;45.196;5.696;2022-09-13T19:31:11;8.18;;;3.45;;
25649;SDS011;13505;45.196;5.696;2022-09-13T19:36:03;5.63;;;3.13;;
25649;SDS011;13505;45.196;5.696;2022-09-13T19:40:58;6.13;;;2.92;;
25649;SDS011;13505;45.196;5.696;2022-09-13T19:51:12;4.60;;;3.30;;
25649;SDS011;13505;45.196;5.696;2022-09-13T19:56:08;7.50;;;3.35;;
25649;SDS011;13505;45.196;5.696;2022-09-13T20:01:04;5.03;;;3.22;;
25649;SDS011;13505;45.196;5.696;2022-09-13T20:06:06;4.60;;;3.28;;
25649;SDS011;13505;45.196;5.696;2022-09-13T20:11:02;3.92;;;3.05;;
25649;SDS011;13505;45.196;5.696;2022-09-13T20:15:55;5.85;;;3.13;;
25649;SDS011;13505;45.196;5.696;2022-09-13T20:20:45;10.70;;;3.13;;
25649;SDS011;13505;45.196;5.696;2022-09-13T20:25:37;8.90;;;3.63;;
25649;SDS011;13505;45.196;5.696;2022-09-13T20:30:30;7.40;;;3.42;;
25649;SDS011;13505;45.196;5.696;2022-09-13T20:35:21;5.75;;;3.42;;
25649;SDS011;13505;45.196;5.696;2022-09-13T20:40:12;4.88;;;3.33;;
25649;SDS011;13505;45.196;5.696;2022-09-13T20:45:03;5.88;;;3.40;;
25649;SDS011;13505;45.196;5.696;2022-09-13T20:49:54;10.93;;;3.42;;
25649;SDS011;13505;45.196;5.696;2022-09-13T20:54:44;8.05;;;3.40;;
